KAWO/AWO METAR and TAF weather

Enter ICAO airport designator
Station Type Date Time Source
KAWO METAR 2019/08/19 22:56 UTC NOAA

KAWO 192256Z AUTO 35004KT 10SM FEW042 23/13 A3001 RMK AO2 SLP166 T02280128 PNO $


Station Type Date Time Source
KAWO Decoded METAR 2019/08/19 22:56 UTC NOAA

Arlington Municipal, WA, United States (KAWO) 48-10N 122-10W
Aug 19, 2019 - 06:56 PM EDT / 2019.08.19 2256 UTC
Wind: from the N (350 degrees) at 5 MPH (4 KT):0
Visibility: 10 mile(s):0
Sky conditions: mostly clear
Temperature: 73.0 F (22.8 C)
Dew Point: 55.0 F (12.8 C)
Relative Humidity: 53%
Pressure (altimeter): 30.01 in. Hg (1016 hPa)
ob: KAWO 192256Z AUTO 35004KT 10SM FEW042 23/13 A3001 RMK AO2 SLP166 T02280128 PNO
cycle: 23

Station Type Date Time Source
KAWO TAF UTC NOAA

Error!

Example: see airport list